Time;durP1;ratioP1;P1;durP2;ratioP2;P2;SDS_P1;SDS_P2;PMS_P1;PMS_P2;Temp;Humidity;BMP_temperature;BMP_pressure;BME280_temperature;BME280_humidity;BME280_pressure;Samples;Min_cycle;Max_cycle;Signal;HPM_P1;HPM_P2
2022/04/19 00:01:38;;;;;;;2.90;2.00;;;6.60;99.20;;;;;;5051168;28;20025;-76
2022/04/19 00:04:04;;;;;;;3.80;2.00;;;6.60;99.40;;;;;;5051903;28;20145;-76
2022/04/19 00:06:29;;;;;;;3.03;1.90;;;6.60;99.70;;;;;;5051428;28;20025;-77
2022/04/19 00:08:55;;;;;;;3.38;2.03;;;6.50;99.90;;;;;;5051884;28;20411;-76
2022/04/19 00:11:21;;;;;;;4.85;2.17;;;6.50;99.90;;;;;;5051922;28;20393;-76
2022/04/19 00:13:47;;;;;;;5.95;2.13;;;6.50;99.90;;;;;;5050911;28;20208;-75
2022/04/19 00:16:14;;;;;;;2.25;1.63;;;6.40;99.90;;;;;;5051491;28;20505;-75
2022/04/19 00:18:40;;;;;;;3.78;1.75;;;6.40;99.90;;;;;;5049521;28;20120;-75
2022/04/19 00:21:05;;;;;;;2.38;1.50;;;6.30;99.90;;;;;;5050975;28;20033;-76
2022/04/19 00:23:31;;;;;;;2.33;1.70;;;6.30;99.90;;;;;;5049359;28;20544;-76
2022/04/19 00:25:57;;;;;;;4.53;2.17;;;6.20;99.90;;;;;;5051341;28;20048;-75
2022/04/19 00:28:22;;;;;;;5.57;1.60;;;6.20;99.90;;;;;;5049927;28;20032;-75
2022/04/19 00:30:48;;;;;;;3.58;1.85;;;6.10;99.90;;;;;;5050504;28;20025;-75
2022/04/19 00:33:14;;;;;;;3.08;1.85;;;6.10;99.90;;;;;;5049680;28;20049;-75
2022/04/19 00:35:40;;;;;;;2.03;1.30;;;6.10;99.90;;;;;;5048877;28;20094;-75
2022/04/19 00:38:06;;;;;;;3.58;1.50;;;6.00;99.90;;;;;;5051168;28;20041;-75
2022/04/19 00:40:32;;;;;;;1.98;1.67;;;6.00;99.90;;;;;;5050433;28;20133;-76
2022/04/19 00:42:58;;;;;;;1.67;1.33;;;6.00;99.90;;;;;;5051177;28;20029;-75
2022/04/19 00:45:24;;;;;;;1.85;1.40;;;5.90;99.90;;;;;;5051516;28;20026;-76
2022/04/19 00:47:54;;;;;;;1.92;1.40;;;5.90;99.90;;;;;;5050266;28;20052;-76
2022/04/19 00:50:20;;;;;;;3.88;2.20;;;5.80;99.90;;;;;;5050829;28;20033;-75
2022/04/19 00:52:46;;;;;;;2.47;1.60;;;5.80;99.90;;;;;;5049874;28;20052;-73
2022/04/19 00:55:12;;;;;;;3.53;1.92;;;5.80;99.90;;;;;;5050748;28;20017;-75
2022/04/19 00:57:39;;;;;;;4.45;2.35;;;5.80;99.90;;;;;;5050175;28;20063;-74
2022/04/19 01:00:08;;;;;;;3.15;1.75;;;5.80;99.90;;;;;;5049837;28;20530;-74
2022/04/19 01:02:35;;;;;;;2.97;1.65;;;5.80;99.90;;;;;;5050338;28;20079;-74
2022/04/19 01:05:02;;;;;;;3.33;1.85;;;5.70;99.90;;;;;;5051377;28;20473;-73
2022/04/19 01:07:27;;;;;;;3.95;2.00;;;5.80;99.90;;;;;;5053010;28;20029;-74
2022/04/19 01:09:54;;;;;;;3.58;1.88;;;5.80;99.90;;;;;;5053668;28;20791;-75
2022/04/19 01:15:05;;;;;;;3.95;2.10;;;5.70;99.90;;;;;;5055283;28;20086;-76
2022/04/19 01:17:34;;;;;;;2.72;1.92;;;5.70;99.90;;;;;;5053045;28;20064;-76
2022/04/19 01:20:03;;;;;;;2.50;1.70;;;5.70;99.90;;;;;;5054268;28;20115;-75
2022/04/19 01:22:42;;;;;;;4.20;2.30;;;5.60;99.90;;;;;;5052653;28;20047;-75
2022/04/19 01:25:10;;;;;;;3.28;1.70;;;5.60;99.90;;;;;;5053143;28;20128;-75
2022/04/19 01:27:36;;;;;;;3.90;2.28;;;5.60;99.90;;;;;;5053411;28;20450;-76
2022/04/19 01:30:05;;;;;;;3.22;2.00;;;5.50;99.90;;;;;;5054105;28;20044;-75
2022/04/19 01:32:32;;;;;;;4.13;2.28;;;5.60;99.90;;;;;;5052687;28;20057;-75
2022/04/19 01:35:11;;;;;;;5.20;2.17;;;5.50;99.90;;;;;;5052248;28;20077;-75
2022/04/19 01:37:38;;;;;;;3.53;2.00;;;5.50;99.90;;;;;;5053196;28;20415;-76
2022/04/19 01:40:17;;;;;;;3.25;1.90;;;5.40;99.90;;;;;;5054040;28;20032;-75
2022/04/19 01:42:47;;;;;;;4.15;2.42;;;5.40;99.90;;;;;;5053171;28;20029;-75
2022/04/19 01:45:14;;;;;;;4.43;2.40;;;5.30;99.90;;;;;;5053986;28;20083;-75
2022/04/19 01:47:40;;;;;;;4.00;2.30;;;5.30;99.90;;;;;;5051764;28;20386;-75
2022/04/19 01:50:13;;;;;;;3.55;2.30;;;5.30;99.90;;;;;;5053788;28;20108;-75
2022/04/19 01:52:40;;;;;;;4.43;2.45;;;5.30;99.90;;;;;;5053154;28;20072;-75
2022/04/19 01:55:14;;;;;;;4.05;2.08;;;5.20;99.90;;;;;;5052345;28;20029;-75
2022/04/19 01:57:44;;;;;;;5.88;2.28;;;5.20;99.90;;;;;;5052796;28;20270;-75
2022/04/19 02:00:11;;;;;;;5.65;3.13;;;5.20;99.90;;;;;;5052392;28;20036;-75
2022/04/19 02:02:37;;;;;;;5.00;2.53;;;5.20;99.90;;;;;;5052644;28;20040;-76
2022/04/19 02:05:04;;;;;;;5.53;2.47;;;5.10;99.90;;;;;;5053500;28;20021;-75
2022/04/19 02:07:32;;;;;;;4.07;2.80;;;5.10;99.90;;;;;;5053180;28;20430;-75
2022/04/19 02:10:01;;;;;;;4.85;2.25;;;5.10;99.90;;;;;;5052648;28;20438;-75
2022/04/19 02:12:27;;;;;;;4.00;2.35;;;5.00;99.90;;;;;;5052052;28;20029;-75
2022/04/19 02:14:53;;;;;;;4.20;2.40;;;5.00;99.90;;;;;;5051137;28;20029;-75
2022/04/19 02:17:20;;;;;;;4.43;2.75;;;5.00;99.90;;;;;;5053092;28;20041;-76
2022/04/19 02:19:47;;;;;;;5.38;2.53;;;5.00;99.90;;;;;;5052253;28;20036;-76
2022/04/19 02:22:13;;;;;;;4.15;2.67;;;4.90;99.90;;;;;;5052840;28;20049;-76
2022/04/19 02:24:39;;;;;;;4.03;2.15;;;5.00;99.90;;;;;;5052425;28;20068;-77
2022/04/19 02:27:05;;;;;;;4.32;2.65;;;4.90;99.90;;;;;;5052820;28;20381;-76
2022/04/19 02:29:32;;;;;;;3.33;2.50;;;4.90;99.90;;;;;;5051768;28;20044;-76
2022/04/19 02:31:58;;;;;;;3.90;2.53;;;4.90;99.90;;;;;;5052355;28;20108;-76
2022/04/19 02:34:24;;;;;;;4.10;2.60;;;4.80;99.90;;;;;;5052767;28;20440;-75
2022/04/19 02:36:52;;;;;;;4.97;2.67;;;4.80;99.90;;;;;;5052428;28;20025;-73
2022/04/19 02:39:19;;;;;;;3.30;2.17;;;4.80;99.90;;;;;;5052771;28;20369;-74
2022/04/19 02:41:44;;;;;;;5.88;2.30;;;4.70;99.90;;;;;;5051729;28;20528;-75
2022/04/19 02:44:10;;;;;;;3.67;2.25;;;4.70;99.90;;;;;;5051421;28;20033;-75
2022/04/19 02:46:35;;;;;;;4.75;2.08;;;4.70;99.90;;;;;;5052621;28;20032;-76
2022/04/19 02:49:05;;;;;;;5.13;3.08;;;4.70;99.90;;;;;;5052323;28;20380;-75
2022/04/19 02:51:34;;;;;;;4.55;2.47;;;4.70;99.90;;;;;;5050878;28;20053;-75
2022/04/19 02:54:00;;;;;;;3.45;2.53;;;4.70;99.90;;;;;;5050401;28;20600;-75
2022/04/19 02:56:25;;;;;;;6.30;2.92;;;4.70;99.90;;;;;;5052471;28;20104;-75
2022/04/19 02:58:51;;;;;;;4.18;2.45;;;4.70;99.90;;;;;;5051595;28;20116;-75
2022/04/19 03:01:17;;;;;;;4.00;2.30;;;4.70;99.90;;;;;;5052693;28;20467;-75
2022/04/19 03:03:43;;;;;;;3.47;2.20;;;4.70;99.90;;;;;;5051542;28;20025;-76
2022/04/19 03:06:09;;;;;;;5.38;2.33;;;4.60;99.90;;;;;;5050953;28;20032;-75
2022/04/19 03:08:35;;;;;;;3.72;2.50;;;4.60;99.90;;;;;;5050881;28;20032;-75
2022/04/19 03:11:02;;;;;;;3.45;2.17;;;4.60;99.90;;;;;;5051414;28;20817;-75
2022/04/19 03:13:27;;;;;;;6.05;3.00;;;4.60;99.90;;;;;;5052190;28;20017;-75
2022/04/19 03:15:53;;;;;;;4.15;2.35;;;4.60;99.90;;;;;;5051615;28;20044;-75
2022/04/19 03:18:19;;;;;;;5.07;2.92;;;4.60;99.90;;;;;;5051967;28;20339;-75
2022/04/19 03:20:46;;;;;;;3.72;2.42;;;4.50;99.90;;;;;;5049853;28;20446;-75
2022/04/19 03:28:47;;;;;;;6.13;2.75;;;4.50;99.90;;;;;;5051091;28;20032;-76
2022/04/19 03:31:13;;;;;;;5.18;2.55;;;4.50;99.90;;;;;;5051492;28;20063;-75
2022/04/19 03:33:39;;;;;;;6.45;2.78;;;4.50;99.90;;;;;;5050202;28;20071;-75
2022/04/19 03:36:05;;;;;;;3.47;2.85;;;4.50;99.90;;;;;;5051219;28;20029;-75
2022/04/19 03:38:31;;;;;;;4.05;2.70;;;4.40;99.90;;;;;;5051313;28;20470;-75
2022/04/19 03:40:56;;;;;;;4.10;2.65;;;4.40;99.90;;;;;;5049733;28;20143;-76
2022/04/19 03:43:23;;;;;;;5.55;2.50;;;4.30;99.90;;;;;;5051431;28;20029;-76
2022/04/19 03:45:48;;;;;;;4.25;2.42;;;4.30;99.90;;;;;;5051189;28;20032;-75
2022/04/19 03:48:14;;;;;;;6.93;2.70;;;4.20;99.90;;;;;;5051309;28;20430;-75
2022/04/19 03:50:40;;;;;;;5.47;2.42;;;4.20;99.90;;;;;;5051163;28;20033;-75
2022/04/19 03:53:07;;;;;;;4.80;2.42;;;4.20;99.90;;;;;;5050852;28;20025;-74
2022/04/19 03:55:32;;;;;;;4.00;2.47;;;4.10;99.90;;;;;;5051523;28;20029;-75
2022/04/19 03:57:58;;;;;;;4.20;2.63;;;4.10;99.90;;;;;;5049060;28;20125;-75
2022/04/19 04:00:24;;;;;;;4.57;2.80;;;4.00;99.90;;;;;;5051723;28;20071;-75
2022/04/19 04:02:49;;;;;;;4.85;2.67;;;4.00;99.90;;;;;;5051275;28;20464;-75
2022/04/19 04:05:15;;;;;;;2.97;2.42;;;4.00;99.90;;;;;;5051166;28;20033;-75
2022/04/19 04:07:42;;;;;;;5.60;3.15;;;3.90;99.90;;;;;;5049932;28;20029;-77
2022/04/19 04:10:09;;;;;;;4.07;2.80;;;3.90;99.90;;;;;;5050647;28;20385;-75
2022/04/19 04:12:35;;;;;;;4.25;2.40;;;3.90;99.90;;;;;;5049830;28;20323;-75
2022/04/19 04:15:03;;;;;;;5.00;2.53;;;4.00;99.90;;;;;;5050587;28;20060;-75
2022/04/19 04:17:29;;;;;;;5.47;2.97;;;4.00;99.90;;;;;;5051295;28;20058;-74
2022/04/19 04:19:57;;;;;;;5.03;2.83;;;4.00;99.90;;;;;;5050530;28;20029;-75
2022/04/19 04:22:23;;;;;;;5.38;3.20;;;4.00;99.90;;;;;;5051441;28;20029;-75
2022/04/19 04:24:48;;;;;;;4.38;2.80;;;4.00;99.90;;;;;;5050735;28;20029;-75
2022/04/19 04:27:15;;;;;;;4.35;3.20;;;4.00;99.90;;;;;;5049986;28;20478;-75
2022/04/19 04:29:40;;;;;;;3.67;2.35;;;4.00;99.90;;;;;;5051253;28;20033;-75
2022/04/19 04:32:07;;;;;;;4.65;2.38;;;3.90;99.90;;;;;;5050746;28;20048;-75
2022/04/19 04:34:32;;;;;;;4.20;2.60;;;3.90;99.90;;;;;;5051161;28;20036;-75
2022/04/19 04:36:58;;;;;;;4.88;2.67;;;3.90;99.90;;;;;;5050262;28;20025;-75
2022/04/19 04:39:23;;;;;;;4.30;3.00;;;3.90;99.90;;;;;;5051352;28;20033;-74
2022/04/19 04:41:49;;;;;;;5.63;3.00;;;3.80;99.90;;;;;;5051374;28;20025;-74
2022/04/19 04:44:15;;;;;;;5.68;2.92;;;3.80;99.90;;;;;;5054961;28;20021;-74
2022/04/19 04:49:36;;;;;;;5.18;2.97;;;3.90;99.90;;;;;;5054923;28;20076;-73
2022/04/19 04:52:09;;;;;;;4.20;2.58;;;3.90;99.90;;;;;;5053528;28;20486;-75
2022/04/19 04:54:36;;;;;;;3.80;2.38;;;4.00;99.90;;;;;;5054588;28;20021;-75
2022/04/19 04:57:03;;;;;;;3.47;2.55;;;4.00;99.90;;;;;;5053950;28;20025;-75
2022/04/19 04:59:30;;;;;;;4.60;2.95;;;4.00;99.90;;;;;;5054727;28;20485;-74
2022/04/19 05:01:57;;;;;;;5.32;2.97;;;4.10;99.90;;;;;;5052330;28;20467;-74
2022/04/19 05:04:23;;;;;;;4.00;3.00;;;4.10;99.90;;;;;;5053138;28;20057;-74
2022/04/19 05:06:48;;;;;;;5.10;2.83;;;4.10;99.90;;;;;;5054089;28;20426;-75
2022/04/19 05:09:14;;;;;;;5.22;3.05;;;4.20;99.90;;;;;;5054165;28;20032;-75
2022/04/19 05:11:40;;;;;;;5.82;3.03;;;4.20;99.90;;;;;;5054858;28;20032;-74
2022/04/19 05:14:07;;;;;;;5.03;2.83;;;4.20;99.90;;;;;;5054236;28;20643;-76
2022/04/19 05:16:36;;;;;;;4.53;2.75;;;4.30;99.90;;;;;;5053618;28;20021;-75
2022/04/19 05:19:05;;;;;;;6.55;4.20;;;4.30;99.90;;;;;;5053762;28;20033;-75
2022/04/19 05:21:31;;;;;;;6.90;3.90;;;4.40;99.90;;;;;;5054815;28;20025;-75
2022/04/19 05:23:57;;;;;;;8.90;3.97;;;4.50;99.90;;;;;;5036143;28;20374;-75
2022/04/19 05:26:27;;;;;;;8.13;3.97;;;4.60;99.90;;;;;;5054783;28;20024;-75
2022/04/19 05:28:53;;;;;;;7.05;4.13;;;4.60;99.90;;;;;;5052872;28;20458;-76
2022/04/19 05:31:18;;;;;;;6.72;3.67;;;4.70;99.90;;;;;;5054676;28;20082;-75
2022/04/19 05:33:44;;;;;;;11.35;3.42;;;4.70;99.90;;;;;;5054677;28;20055;-75
2022/04/19 05:36:10;;;;;;;7.35;3.92;;;4.80;99.90;;;;;;5053761;28;20036;-75
2022/04/19 05:38:35;;;;;;;5.10;3.53;;;4.90;99.90;;;;;;5054386;28;20044;-75
2022/04/19 05:41:01;;;;;;;12.73;4.05;;;4.90;99.90;;;;;;5052397;28;20486;-75
2022/04/19 05:43:28;;;;;;;8.68;3.95;;;4.90;99.90;;;;;;5054690;28;20426;-75
2022/04/19 05:45:54;;;;;;;11.43;4.93;;;5.00;99.90;;;;;;5053881;28;20057;-75
2022/04/19 05:48:19;;;;;;;10.63;4.80;;;5.20;99.90;;;;;;5054366;28;20110;-75
2022/04/19 05:50:45;;;;;;;14.43;5.00;;;5.30;99.90;;;;;;5054099;28;20576;-75
2022/04/19 05:53:11;;;;;;;16.20;4.78;;;5.40;99.90;;;;;;5052790;28;20040;-75
2022/04/19 05:55:36;;;;;;;11.75;5.00;;;5.60;99.90;;;;;;5054466;28;20021;-74
2022/04/19 05:58:02;;;;;;;12.63;5.22;;;5.70;99.90;;;;;;5051967;28;20058;-74
2022/04/19 06:00:27;;;;;;;10.82;4.75;;;5.90;99.90;;;;;;5054057;28;20040;-75
2022/04/19 06:05:37;;;;;;;11.88;4.28;;;6.20;99.90;;;;;;5054055;28;20432;-75
2022/04/19 06:08:03;;;;;;;7.40;4.35;;;6.40;99.90;;;;;;5053148;28;20033;-75
2022/04/19 06:10:28;;;;;;;14.10;4.80;;;6.50;99.90;;;;;;5053942;28;20082;-75
2022/04/19 06:12:54;;;;;;;8.10;4.72;;;6.60;99.90;;;;;;5053078;28;20454;-76
2022/04/19 06:15:20;;;;;;;7.32;4.15;;;6.80;99.90;;;;;;5052742;28;20025;-75
2022/04/19 06:17:45;;;;;;;8.38;4.13;;;6.90;99.90;;;;;;5053637;28;20033;-75
2022/04/19 06:20:12;;;;;;;6.43;4.28;;;7.00;99.90;;;;;;5053117;28;20025;-76
2022/04/19 06:22:38;;;;;;;8.32;4.30;;;7.20;99.90;;;;;;5053739;28;20503;-75
2022/04/19 06:25:04;;;;;;;7.35;4.30;;;7.30;99.90;;;;;;5051574;28;20029;-75
2022/04/19 06:27:30;;;;;;;5.53;4.10;;;7.40;99.90;;;;;;5053255;28;20137;-75
2022/04/19 06:29:57;;;;;;;7.10;4.00;;;7.50;99.90;;;;;;5051303;28;20493;-75
2022/04/19 06:32:24;;;;;;;5.97;3.92;;;7.70;99.90;;;;;;5053277;28;20034;-75
2022/04/19 06:34:52;;;;;;;8.18;4.15;;;7.90;99.90;;;;;;5053064;28;20535;-77
2022/04/19 06:37:20;;;;;;;6.20;4.28;;;8.00;99.90;;;;;;5053550;28;20478;-75
2022/04/19 06:39:46;;;;;;;6.57;4.07;;;8.20;99.90;;;;;;5052963;28;20024;-75
2022/04/19 06:42:12;;;;;;;11.35;4.30;;;8.50;99.90;;;;;;5051832;28;20025;-75
2022/04/19 06:44:39;;;;;;;7.35;4.07;;;8.70;99.90;;;;;;5052636;28;20470;-74
2022/04/19 06:47:05;;;;;;;8.02;5.13;;;8.80;99.90;;;;;;5052956;28;20048;-75
2022/04/19 06:49:32;;;;;;;7.35;4.63;;;9.00;99.90;;;;;;5053600;28;20458;-76
2022/04/19 06:51:57;;;;;;;7.13;4.80;;;9.00;99.90;;;;;;5052376;28;20049;-75
2022/04/19 06:54:23;;;;;;;11.38;4.75;;;9.10;99.90;;;;;;5053886;28;20394;-75
2022/04/19 06:56:50;;;;;;;8.25;3.97;;;9.30;99.00;;;;;;5053552;28;20079;-74
2022/04/19 06:59:15;;;;;;;9.15;4.60;;;9.40;99.20;;;;;;5052110;28;20363;-74
2022/04/19 07:01:43;;;;;;;14.48;5.47;;;9.50;98.90;;;;;;5052599;28;20036;-75
2022/04/19 07:04:10;;;;;;;8.90;4.93;;;9.60;98.60;;;;;;5051245;28;20021;-75
2022/04/19 07:06:36;;;;;;;10.35;4.85;;;9.60;98.30;;;;;;5051710;28;20056;-75
2022/04/19 07:09:03;;;;;;;9.95;4.88;;;9.70;97.90;;;;;;5051899;28;20025;-76
2022/04/19 07:11:29;;;;;;;11.20;4.93;;;9.80;97.40;;;;;;5052964;28;20169;-74
2022/04/19 07:13:55;;;;;;;11.27;5.40;;;9.80;98.00;;;;;;5052175;28;20036;-75
2022/04/19 07:16:21;;;;;;;10.40;4.78;;;9.80;97.90;;;;;;5053059;28;20028;-75
2022/04/19 07:18:46;;;;;;;8.75;4.93;;;9.90;96.90;;;;;;5052610;28;20387;-75
2022/04/19 07:26:40;;;;;;;9.93;5.05;;;10.30;95.80;;;;;;5052362;28;20032;-76
2022/04/19 07:29:13;;;;;;;11.43;4.75;;;10.40;95.30;;;;;;5051650;28;20028;-74
2022/04/19 07:31:43;;;;;;;8.05;4.60;;;10.40;95.00;;;;;;5052703;28;20427;-74
2022/04/19 07:34:10;;;;;;;8.80;4.45;;;10.50;94.80;;;;;;5051484;28;20025;-75
2022/04/19 07:36:42;;;;;;;9.60;4.57;;;10.50;95.00;;;;;;5054655;28;20469;-74
2022/04/19 07:39:13;;;;;;;7.90;4.50;;;10.60;94.40;;;;;;5054258;28;20116;-75
2022/04/19 07:41:39;;;;;;;6.82;4.10;;;10.70;94.20;;;;;;5051975;28;20032;-75
2022/04/19 07:44:11;;;;;;;6.85;5.22;;;10.70;94.30;;;;;;5051363;28;20025;-76
2022/04/19 07:46:37;;;;;;;10.52;5.57;;;10.80;94.10;;;;;;5052718;28;20029;-75
2022/04/19 07:49:03;;;;;;;8.23;4.20;;;11.00;94.00;;;;;;5050128;28;20037;-75
2022/04/19 07:51:29;;;;;;;8.30;4.68;;;11.20;93.40;;;;;;5052167;28;20118;-75
2022/04/19 07:53:55;;;;;;;7.10;4.60;;;11.40;92.90;;;;;;5051810;28;20106;-76
2022/04/19 07:56:21;;;;;;;9.07;4.75;;;11.60;92.10;;;;;;5051683;28;20032;-74
2022/04/19 07:58:47;;;;;;;10.80;5.30;;;11.70;92.30;;;;;;5053445;28;20037;-74
2022/04/19 08:01:14;;;;;;;8.13;4.45;;;11.80;91.50;;;;;;5051535;28;20021;-75
2022/04/19 08:03:40;;;;;;;8.15;4.97;;;11.90;91.30;;;;;;5052104;28;20025;-75
2022/04/19 08:06:06;;;;;;;9.63;4.90;;;12.00;90.50;;;;;;5051154;28;20459;-75
2022/04/19 08:08:31;;;;;;;7.55;4.70;;;12.10;90.30;;;;;;5051860;28;20029;-75
2022/04/19 08:10:57;;;;;;;9.38;4.95;;;12.20;90.00;;;;;;5051599;28;20029;-77
2022/04/19 08:13:24;;;;;;;10.80;4.43;;;12.20;90.80;;;;;;5051883;28;20078;-76
2022/04/19 08:15:50;;;;;;;9.27;5.10;;;12.30;89.50;;;;;;5053274;28;20037;-76
2022/04/19 08:18:18;;;;;;;13.75;5.20;;;12.50;89.00;;;;;;5055267;28;20040;-76
2022/04/19 08:20:45;;;;;;;8.43;4.53;;;12.60;87.00;;;;;;5056014;28;20100;-75
2022/04/19 08:23:12;;;;;;;10.43;5.45;;;12.70;86.60;;;;;;5053983;28;20037;-75
2022/04/19 08:25:39;;;;;;;9.27;4.85;;;12.80;85.00;;;;;;5054845;28;20078;-76
2022/04/19 08:28:05;;;;;;;6.40;4.40;;;12.90;83.20;;;;;;5055105;28;20470;-76
2022/04/19 08:30:32;;;;;;;9.98;5.15;;;12.90;83.70;;;;;;5055820;28;20029;-75
2022/04/19 08:32:57;;;;;;;7.03;4.35;;;13.20;82.00;;;;;;5054305;28;20325;-77
2022/04/19 08:35:23;;;;;;;8.20;4.47;;;13.30;80.40;;;;;;5054994;28;20517;-76
2022/04/19 08:37:49;;;;;;;7.93;5.07;;;13.50;80.40;;;;;;5055417;28;20040;-76
2022/04/19 08:40:16;;;;;;;14.00;5.70;;;13.60;79.80;;;;;;5053498;28;20076;-76
2022/04/19 08:42:43;;;;;;;13.18;5.15;;;13.80;77.20;;;;;;5054308;28;20480;-75
2022/04/19 08:45:10;;;;;;;8.95;5.10;;;13.90;74.50;;;;;;5054856;28;20029;-76
2022/04/19 08:47:40;;;;;;;8.23;5.22;;;14.00;69.10;;;;;;5055514;28;20115;-75
2022/04/19 08:50:11;;;;;;;7.20;4.85;;;14.20;69.20;;;;;;5053422;28;20036;-76
2022/04/19 08:52:38;;;;;;;9.27;5.18;;;14.20;68.60;;;;;;5055604;28;20056;-76
2022/04/19 08:57:50;;;;;;;8.55;4.50;;;14.50;65.80;;;;;;5055227;28;20036;-75
2022/04/19 09:00:17;;;;;;;8.95;4.72;;;14.60;65.70;;;;;;5054401;28;20029;-76
2022/04/19 09:02:42;;;;;;;7.05;4.68;;;14.70;65.10;;;;;;5055324;28;20386;-74
2022/04/19 09:05:23;;;;;;;7.53;4.07;;;14.80;65.50;;;;;;5054273;28;20025;-76
2022/04/19 09:07:50;;;;;;;;;;;14.80;64.50;;;;;;5054348;28;20029;-75
2022/04/19 09:10:28;;;;;;;9.05;4.60;;;14.90;65.30;;;;;;5054274;28;19905;-73
2022/04/19 09:12:55;;;;;;;7.35;5.00;;;15.10;64.00;;;;;;5055098;28;20032;-75
2022/04/19 09:15:21;;;;;;;6.60;4.15;;;15.10;62.70;;;;;;5054177;28;20031;-74
2022/04/19 09:17:49;;;;;;;7.72;4.25;;;15.20;62.10;;;;;;5055112;28;20041;-72
2022/04/19 09:20:19;;;;;;;11.32;4.30;;;15.30;61.60;;;;;;5054026;28;20033;-76
2022/04/19 09:22:48;;;;;;;9.45;4.32;;;15.40;62.60;;;;;;5053624;28;20378;-74
2022/04/19 09:25:15;;;;;;;5.93;3.80;;;15.60;61.30;;;;;;5053783;28;20025;-74
2022/04/19 09:27:42;;;;;;;5.55;3.95;;;15.80;59.20;;;;;;5053739;28;20033;-75
2022/04/19 09:30:31;;;;;;;6.60;3.90;;;15.90;59.00;;;;;;5052687;28;20071;-75
2022/04/19 09:33:07;;;;;;;5.25;3.55;;;16.00;57.30;;;;;;5054442;28;20028;-74
2022/04/19 09:35:39;;;;;;;7.13;3.47;;;16.00;56.90;;;;;;5054905;28;20123;-76
2022/04/19 09:38:07;;;;;;;9.68;3.70;;;16.10;56.80;;;;;;5052325;28;20044;-77
2022/04/19 09:40:38;;;;;;;7.28;3.22;;;16.20;56.30;;;;;;5054189;28;20025;-76
2022/04/19 09:43:21;;;;;;;8.00;3.15;;;16.20;56.80;;;;;;5053839;28;20059;-77
2022/04/19 09:46:03;;;;;;;4.93;3.22;;;16.30;53.30;;;;;;5054338;28;20024;-75
2022/04/19 09:48:36;;;;;;;7.45;3.90;;;16.30;54.20;;;;;;5053801;28;20059;-76
2022/04/19 09:51:12;;;;;;;6.35;3.78;;;16.30;56.60;;;;;;5053957;28;20041;-78
2022/04/19 09:53:46;;;;;;;5.78;4.13;;;16.40;57.80;;;;;;5054314;28;20025;-76
2022/04/19 09:56:16;;;;;;;6.25;3.92;;;16.50;52.70;;;;;;5054078;28;20218;-76
2022/04/19 09:58:44;;;;;;;4.55;3.25;;;16.60;54.00;;;;;;5053881;28;20039;-76
2022/04/19 10:09:25;;;;;;;5.97;3.53;;;16.80;54.40;;;;;;5052869;28;20087;-74
2022/04/19 10:11:51;;;;;;;8.80;3.92;;;16.90;54.50;;;;;;5053404;28;20094;-74
2022/04/19 10:14:21;;;;;;;8.23;3.95;;;17.00;53.30;;;;;;5052931;28;20025;-75
2022/04/19 10:16:50;;;;;;;8.35;3.78;;;16.90;52.40;;;;;;5053639;28;20347;-75
2022/04/19 10:19:17;;;;;;;5.03;3.42;;;16.90;53.40;;;;;;5052791;28;20041;-75
2022/04/19 10:21:44;;;;;;;7.28;3.72;;;17.00;51.80;;;;;;5053935;28;20033;-75
2022/04/19 10:24:15;;;;;;;6.82;3.30;;;17.00;50.40;;;;;;5052752;28;20029;-75
2022/04/19 10:26:48;;;;;;;6.22;3.70;;;17.00;50.90;;;;;;5053523;28;20110;-76
2022/04/19 10:29:20;;;;;;;5.63;4.07;;;17.10;51.50;;;;;;5052451;28;20485;-76
2022/04/19 10:32:01;;;;;;;6.03;3.33;;;17.00;50.20;;;;;;5053737;28;20056;-74
2022/04/19 10:34:28;;;;;;;6.82;3.88;;;17.00;49.80;;;;;;5051320;28;20027;-75
2022/04/19 10:36:57;;;;;;;5.38;3.85;;;17.00;49.20;;;;;;5053368;28;20021;-75
2022/04/19 10:39:25;;;;;;;4.47;3.20;;;17.20;50.80;;;;;;5052330;28;20099;-75
2022/04/19 10:41:56;;;;;;;5.63;3.50;;;17.30;53.90;;;;;;5053198;28;20142;-76
2022/04/19 10:44:34;;;;;;;7.57;3.85;;;17.40;56.60;;;;;;5052572;28;20175;-75
2022/04/19 10:47:11;;;;;;;5.28;3.63;;;17.40;57.10;;;;;;5052226;28;20031;-75
2022/04/19 10:49:51;;;;;;;6.78;3.60;;;17.50;58.00;;;;;;5053296;28;20032;-75
2022/04/19 10:52:39;;;;;;;6.00;3.75;;;17.50;48.60;;;;;;5052300;28;20049;-76
2022/04/19 10:55:09;;;;;;;5.53;3.58;;;17.70;48.20;;;;;;5052760;28;20581;-76
2022/04/19 11:00:34;;;;;;;6.57;4.13;;;17.90;49.50;;;;;;5052225;28;20083;-75
2022/04/19 11:03:05;;;;;;;6.53;4.20;;;18.10;47.60;;;;;;5053215;28;20113;-75
2022/04/19 11:05:47;;;;;;;4.68;3.95;;;18.10;48.00;;;;;;5053079;28;20032;-74
2022/04/19 11:08:25;;;;;;;9.15;4.10;;;17.80;48.00;;;;;;5051964;28;20033;-77
2022/04/19 11:10:57;;;;;;;8.40;4.45;;;17.90;49.10;;;;;;5052402;28;20028;-75
2022/04/19 11:13:27;;;;;;;7.22;4.28;;;18.00;48.90;;;;;;5050718;28;20025;-75
2022/04/19 11:16:04;;;;;;;5.82;4.57;;;18.00;47.80;;;;;;5052894;28;20025;-75
2022/04/19 11:18:34;;;;;;;5.13;3.63;;;18.00;48.40;;;;;;5051840;28;20095;-75
2022/04/19 11:21:03;;;;;;;5.27;3.40;;;18.00;47.70;;;;;;5052860;28;20028;-75
2022/04/19 11:23:50;;;;;;;5.75;4.40;;;18.10;48.10;;;;;;5051794;28;20021;-76
2022/04/19 11:26:30;;;;;;;6.93;3.58;;;18.30;48.00;;;;;;5051702;28;20135;-75
2022/04/19 11:29:09;;;;;;;6.00;4.03;;;18.60;46.70;;;;;;5052110;28;20542;-76
2022/04/19 11:31:35;;;;;;;8.93;4.43;;;18.80;47.30;;;;;;5052080;28;20047;-75
2022/04/19 11:34:09;;;;;;;5.68;4.20;;;18.90;46.60;;;;;;5050985;28;20121;-74
2022/04/19 11:36:36;;;;;;;7.05;3.85;;;18.70;46.50;;;;;;5051968;28;20033;-75
2022/04/19 11:39:03;;;;;;;6.00;3.58;;;18.60;46.40;;;;;;5052200;28;20043;-74
2022/04/19 11:46:47;;;;;;;8.98;4.78;;;18.80;45.10;;;;;;5052363;28;20441;-74
2022/04/19 11:49:16;;;;;;;4.68;3.97;;;19.00;46.30;;;;;;5051367;28;20033;-74
2022/04/19 11:52:02;;;;;;;5.55;4.30;;;19.30;44.70;;;;;;5051194;28;20049;-74
2022/04/19 11:54:32;;;;;;;6.38;4.10;;;19.40;43.90;;;;;;5050012;28;20040;-75
2022/04/19 11:57:03;;;;;;;;;;;19.50;44.50;;;;;;5052565;28;20021;-75
2022/04/19 11:59:36;;;;;;;4.95;4.00;;;19.70;44.60;;;;;;5051004;28;20027;-75
2022/04/19 12:02:04;;;;;;;7.00;4.15;;;20.00;44.40;;;;;;5051846;28;20017;-76
2022/04/19 12:04:30;;;;;;;5.32;3.60;;;20.40;43.40;;;;;;5051095;28;20124;-75
2022/04/19 12:07:02;;;;;;;4.00;3.22;;;20.50;44.30;;;;;;5051759;28;20032;-76
2022/04/19 12:09:30;;;;;;;7.60;4.53;;;20.50;43.50;;;;;;5051108;28;20503;-76
2022/04/19 12:11:56;;;;;;;6.38;3.88;;;20.20;42.90;;;;;;5051927;28;20025;-76
2022/04/19 12:14:27;;;;;;;6.88;3.90;;;19.80;44.10;;;;;;5051027;28;20021;-76
2022/04/19 12:17:18;;;;;;;9.60;4.63;;;19.80;44.80;;;;;;5051827;28;20028;-76
2022/04/19 12:19:44;;;;;;;6.55;4.55;;;20.10;43.90;;;;;;5052216;28;20052;-75
2022/04/19 12:22:18;;;;;;;4.80;4.25;;;20.10;45.00;;;;;;5051993;28;20479;-76
2022/04/19 12:24:53;;;;;;;6.32;4.53;;;20.10;43.40;;;;;;5051520;28;20021;-76
2022/04/19 12:27:30;;;;;;;6.18;4.80;;;20.10;44.20;;;;;;5050864;28;20028;-76
2022/04/19 12:30:11;;;;;;;6.03;4.95;;;20.10;43.70;;;;;;5051592;28;20040;-76
2022/04/19 12:33:01;;;;;;;6.65;3.88;;;20.00;42.50;;;;;;5051169;28;20072;-76
2022/04/19 12:35:34;;;;;;;;;;;20.10;42.30;;;;;;5044939;28;20040;-76
2022/04/19 12:38:13;;;;;;;6.95;4.43;;;20.50;42.60;;;;;;5051461;28;19960;-76
2022/04/19 12:40:40;;;;;;;4.80;3.80;;;20.50;42.20;;;;;;5051283;28;20017;-76
2022/04/19 12:43:06;;;;;;;6.32;3.80;;;20.50;41.70;;;;;;5054693;28;20343;-76
2022/04/19 12:45:37;;;;;;;6.68;4.10;;;20.30;42.00;;;;;;5051138;28;20060;-76
2022/04/19 12:48:04;;;;;;;7.85;4.90;;;20.50;42.10;;;;;;5051632;28;20029;-74
2022/04/19 12:50:30;;;;;;;6.47;4.28;;;20.20;41.70;;;;;;5050584;28;20033;-75
2022/04/19 12:52:56;;;;;;;6.45;4.15;;;20.30;41.90;;;;;;5051680;28;20053;-75
2022/04/19 12:58:45;;;;;;;6.63;4.03;;;20.40;42.60;;;;;;5053235;28;20118;-76
2022/04/19 13:01:12;;;;;;;4.47;3.28;;;20.70;41.60;;;;;;5052361;28;20029;-75
2022/04/19 13:03:38;;;;;;;4.60;3.10;;;21.00;41.00;;;;;;5053349;28;20024;-76
2022/04/19 13:14:17;;;;;;;4.93;3.97;;;21.20;41.10;;;;;;5054330;28;20509;-77
2022/04/19 13:16:43;;;;;;;9.35;4.35;;;20.80;42.10;;;;;;5053942;28;20026;-77
2022/04/19 13:19:08;;;;;;;7.15;4.68;;;20.90;41.70;;;;;;5053416;28;20085;-76
2022/04/19 13:21:34;;;;;;;7.93;4.90;;;20.80;41.90;;;;;;5053745;28;20033;-77
2022/04/19 13:24:01;;;;;;;5.57;4.45;;;21.00;41.80;;;;;;5054774;28;20417;-76
2022/04/19 13:26:28;;;;;;;5.97;4.53;;;21.10;42.40;;;;;;5053857;28;20017;-75
2022/04/19 13:28:53;;;;;;;6.47;4.80;;;21.50;41.50;;;;;;5054696;28;20044;-77
2022/04/19 13:31:19;;;;;;;4.68;3.92;;;21.70;41.50;;;;;;5054201;28;20021;-76
2022/04/19 13:33:44;;;;;;;6.88;4.65;;;21.80;41.40;;;;;;5054763;28;20028;-74
2022/04/19 13:36:10;;;;;;;4.93;3.60;;;22.00;41.20;;;;;;5053246;28;20079;-77
2022/04/19 13:38:37;;;;;;;5.30;3.70;;;22.00;41.60;;;;;;5052139;28;20041;-76
2022/04/19 13:41:03;;;;;;;3.78;2.63;;;21.90;41.90;;;;;;5054542;28;20055;-77
2022/04/19 13:43:29;;;;;;;4.45;3.60;;;21.70;42.40;;;;;;5053718;28;20111;-77
2022/04/19 13:45:54;;;;;;;6.72;3.40;;;21.80;41.90;;;;;;5052788;28;20061;-76
2022/04/19 13:48:20;;;;;;;6.20;3.17;;;21.70;41.60;;;;;;5053501;28;20033;-78